createdAt,value
2018-03-15T00:01:59.390Z,27.48
2018-03-15T00:04:33.983Z,23.15
2018-03-15T00:07:03.892Z,24.02
2018-03-15T00:09:32.275Z,24.67
2018-03-15T00:12:00.641Z,29.05
2018-03-15T00:14:29.039Z,23.83
2018-03-15T00:16:57.461Z,25.25
2018-03-15T00:19:25.870Z,25.77
2018-03-15T00:21:54.242Z,25.30
2018-03-15T00:24:22.830Z,25.77
2018-03-15T00:26:51.210Z,26.62
2018-03-15T00:29:19.590Z,25.98
2018-03-15T00:31:47.996Z,30.15
2018-03-15T00:34:16.381Z,28.12
2018-03-15T00:36:45.546Z,29.60
2018-03-15T00:39:13.929Z,25.88
2018-03-15T00:41:42.342Z,29.23
2018-03-15T00:44:10.711Z,26.95
2018-03-15T00:46:39.094Z,27.00
2018-03-15T00:49:07.493Z,30.25
2018-03-15T00:51:35.871Z,30.98
2018-03-15T00:54:05.039Z,28.75
2018-03-15T00:56:33.423Z,29.45
2018-03-15T00:59:01.963Z,29.17
2018-03-15T01:01:30.354Z,30.37
2018-03-15T01:03:58.737Z,27.83
2018-03-15T01:06:27.142Z,28.70
2018-03-15T01:08:56.275Z,31.40
2018-03-15T01:11:24.686Z,30.20
2018-03-15T01:13:53.066Z,28.45
2018-03-15T01:16:21.495Z,31.52
2018-03-15T01:18:50.654Z,32.03
2018-03-15T01:21:19.023Z,29.92
2018-03-15T01:23:47.417Z,30.85
2018-03-15T01:26:17.289Z,34.30
2018-03-15T01:28:45.684Z,29.95
2018-03-15T01:31:14.050Z,30.50
2018-03-15T01:33:42.634Z,33.97
2018-03-15T01:36:11.010Z,33.45
2018-03-15T01:38:39.386Z,31.55
2018-03-15T01:41:07.781Z,30.05
2018-03-15T01:43:36.147Z,33.78
2018-03-15T01:46:04.550Z,32.63
2018-03-15T01:48:32.921Z,32.40
2018-03-15T01:51:01.595Z,31.58
2018-03-15T01:53:29.968Z,31.20
2018-03-15T01:55:58.350Z,29.80
2018-03-15T01:58:26.758Z,32.92
2018-03-15T02:00:55.137Z,32.35
2018-03-15T02:03:23.541Z,34.22
2018-03-15T02:05:52.669Z,31.08
2018-03-15T02:08:21.088Z,32.03
2018-03-15T02:10:49.457Z,33.08
2018-03-15T02:13:17.849Z,33.85
2018-03-15T02:15:46.250Z,31.02
2018-03-15T02:18:15.382Z,30.10
2018-03-15T02:20:43.775Z,32.03
2018-03-15T02:23:12.141Z,29.15
2018-03-15T02:25:40.734Z,29.08
2018-03-15T02:28:09.102Z,32.00
2018-03-15T02:30:37.476Z,29.73
2018-03-15T02:33:05.883Z,31.05
2018-03-15T02:35:34.258Z,30.98
2018-03-15T02:38:02.663Z,29.27
2018-03-15T02:40:32.550Z,31.35
2018-03-15T02:43:00.980Z,33.22
2018-03-15T02:45:30.113Z,30.80
2018-03-15T02:47:58.490Z,32.67
2018-03-15T02:50:26.892Z,31.25
2018-03-15T02:52:55.297Z,30.90
2018-03-15T02:55:24.469Z,31.45
2018-03-15T02:57:52.873Z,30.20
2018-03-15T03:00:21.533Z,29.73
2018-03-15T03:02:49.902Z,30.10
2018-03-15T03:05:18.271Z,29.98
2018-03-15T03:07:46.670Z,29.50
2018-03-15T03:10:15.046Z,25.60
2018-03-15T03:12:43.450Z,27.80
2018-03-15T03:15:11.827Z,28.65
2018-03-15T03:17:40.361Z,29.30
2018-03-15T03:20:08.730Z,27.98
2018-03-15T03:22:37.098Z,27.62
2018-03-15T03:25:05.486Z,27.80
2018-03-15T03:27:33.860Z,28.25
2018-03-15T03:30:02.263Z,29.12
2018-03-15T03:32:30.629Z,27.75
2018-03-15T03:34:59.031Z,28.15
2018-03-15T03:37:27.417Z,26.90
2018-03-15T03:39:55.829Z,28.80
2018-03-15T03:42:24.994Z,29.80
2018-03-15T03:44:53.370Z,30.58
2018-03-15T03:47:21.762Z,32.72
2018-03-15T03:49:50.142Z,32.50
2018-03-15T03:52:19.523Z,33.50
2018-03-15T03:54:47.895Z,33.70
2018-03-15T03:57:16.261Z,34.25
2018-03-15T03:59:44.650Z,33.17
2018-03-15T04:02:13.030Z,31.35
2018-03-15T04:04:41.480Z,32.67
2018-03-15T04:07:10.604Z,32.95
2018-03-15T04:09:39.008Z,31.17
2018-03-15T04:12:07.382Z,34.30
2018-03-15T04:14:35.749Z,31.48
2018-03-15T04:17:04.169Z,28.42
2018-03-15T04:19:33.315Z,32.85
2018-03-15T04:22:01.702Z,31.00
2018-03-15T04:24:30.075Z,31.37
2018-03-15T04:26:58.474Z,30.92
2018-03-15T04:29:26.854Z,33.03
2018-03-15T04:31:56.031Z,35.00
2018-03-15T04:34:24.423Z,35.47
2018-03-15T04:36:52.802Z,34.20
2018-03-15T04:39:21.195Z,36.92
2018-03-15T04:41:49.567Z,36.75
2018-03-15T04:44:17.977Z,36.47
2018-03-15T04:46:47.122Z,36.78
2018-03-15T04:49:15.493Z,36.75
2018-03-15T04:51:43.884Z,33.95
2018-03-15T04:54:12.254Z,34.10
2018-03-15T04:56:40.656Z,38.08
2018-03-15T04:59:09.806Z,34.00
2018-03-15T05:01:38.321Z,32.65
2018-03-15T05:04:06.698Z,33.55
2018-03-15T05:06:35.079Z,34.67
2018-03-15T05:09:03.470Z,34.17
2018-03-15T05:11:31.837Z,34.13
2018-03-15T05:14:00.226Z,35.17
2018-03-15T05:16:29.375Z,34.10
2018-03-15T05:18:57.793Z,32.90
2018-03-15T05:21:26.172Z,32.72
2018-03-15T05:23:54.542Z,35.22
2018-03-15T05:26:22.930Z,34.80
2018-03-15T05:28:51.324Z,32.00
2018-03-15T05:31:21.238Z,33.03
2018-03-15T05:33:49.602Z,30.50
2018-03-15T05:36:18.264Z,33.75
2018-03-15T05:38:46.642Z,32.67
2018-03-15T05:41:15.506Z,33.35
2018-03-15T05:43:43.900Z,34.25
2018-03-15T05:46:12.278Z,31.62
2018-03-15T05:48:40.684Z,32.13
2018-03-15T05:51:09.065Z,32.90
2018-03-15T05:53:37.478Z,31.83
2018-03-15T05:56:06.619Z,31.87
2018-03-15T05:58:34.996Z,31.62
2018-03-15T06:01:03.413Z,31.12
2018-03-15T06:03:32.574Z,32.88
2018-03-15T06:06:01.060Z,27.75
2018-03-15T06:08:29.432Z,32.03
2018-03-15T06:10:58.016Z,32.75
2018-03-15T06:13:26.389Z,29.70
2018-03-15T06:15:54.778Z,31.08
2018-03-15T06:18:23.182Z,31.08
2018-03-15T06:20:53.067Z,32.10
2018-03-15T06:23:21.461Z,32.03
2018-03-15T06:25:49.834Z,30.52
2018-03-15T06:28:18.234Z,30.92
2018-03-15T06:30:46.606Z,29.75
2018-03-15T06:33:14.982Z,30.60
2018-03-15T06:35:43.374Z,29.85
2018-03-15T06:38:11.749Z,30.27
2018-03-15T06:40:41.650Z,30.65
2018-03-15T06:43:10.018Z,31.85
2018-03-15T06:45:38.414Z,29.85
2018-03-15T06:48:06.807Z,30.37
2018-03-15T06:50:36.684Z,27.77
2018-03-15T06:53:05.088Z,28.17
2018-03-15T06:55:34.233Z,27.27
2018-03-15T06:58:02.639Z,26.45
2018-03-15T07:00:31.019Z,28.30
2018-03-15T07:02:59.445Z,24.42
2018-03-15T07:05:28.596Z,23.48
2018-03-15T07:07:58.716Z,21.23
2018-03-15T07:10:27.142Z,25.48
2018-03-15T07:12:56.268Z,23.45
2018-03-15T07:15:24.785Z,25.58
2018-03-15T07:17:53.153Z,24.42
2018-03-15T07:20:21.552Z,25.80
2018-03-15T07:22:50.678Z,24.67
2018-03-15T07:25:19.909Z,24.05
2018-03-15T07:27:48.278Z,24.85
2018-03-15T07:30:16.648Z,24.95
2018-03-15T07:32:45.041Z,24.75
2018-03-15T07:35:13.417Z,22.58
2018-03-15T07:37:41.807Z,24.48
2018-03-15T07:40:10.178Z,24.48
2018-03-15T07:42:38.576Z,22.23
2018-03-15T07:45:06.993Z,22.23
2018-03-15T07:47:36.135Z,19.77
2018-03-15T07:50:04.545Z,21.92
2018-03-15T07:52:34.425Z,20.35
2018-03-15T07:55:02.827Z,21.20
2018-03-15T07:57:31.214Z,21.15
2018-03-15T07:59:59.613Z,21.05
2018-03-15T08:02:27.984Z,21.10
2018-03-15T08:04:56.350Z,22.65
2018-03-15T08:07:24.740Z,23.42
2018-03-15T08:09:53.182Z,22.67
2018-03-15T08:12:21.576Z,20.02
2018-03-15T08:14:49.958Z,22.23
2018-03-15T08:17:18.728Z,22.05
2018-03-15T08:19:47.091Z,20.10
2018-03-15T08:22:15.470Z,19.62
2018-03-15T08:24:43.865Z,19.20
2018-03-15T08:27:12.243Z,21.80
2018-03-15T08:29:40.641Z,20.30
2018-03-15T08:32:09.019Z,17.90
2018-03-15T08:34:37.577Z,15.63
2018-03-15T08:37:05.963Z,15.27
2018-03-15T08:39:34.359Z,17.62
2018-03-15T08:42:02.771Z,16.27
2018-03-15T08:44:32.005Z,15.57
2018-03-15T08:47:00.402Z,17.35
2018-03-15T08:49:28.803Z,17.62
2018-03-15T08:51:57.459Z,18.00
2018-03-15T08:54:25.830Z,16.45
2018-03-15T08:56:54.203Z,14.55
2018-03-15T08:59:22.600Z,15.55
2018-03-15T09:01:50.976Z,17.52
2018-03-15T09:04:19.509Z,16.77
2018-03-15T09:06:48.554Z,16.80
2018-03-15T09:09:16.983Z,16.70
2018-03-15T09:11:46.206Z,16.55
2018-03-15T09:14:14.598Z,17.35
2018-03-15T09:16:42.995Z,15.73
2018-03-15T09:19:11.399Z,15.13
2018-03-15T09:21:39.810Z,15.70
2018-03-15T09:24:08.190Z,14.15
2018-03-15T09:26:37.357Z,16.58
2018-03-15T09:29:05.762Z,15.40
2018-03-15T09:31:34.906Z,15.00
2018-03-15T09:34:03.347Z,17.75
2018-03-15T09:36:31.761Z,17.05
2018-03-15T09:39:00.206Z,15.82
2018-03-15T09:41:28.618Z,16.37
2018-03-15T09:43:57.029Z,13.13
2018-03-15T09:46:25.466Z,14.55
2018-03-15T09:48:53.906Z,13.80
2018-03-15T09:51:22.371Z,13.77
2018-03-15T09:53:51.516Z,14.00
2018-03-15T09:56:19.921Z,14.02
2018-03-15T09:58:48.354Z,13.88
2018-03-15T10:01:16.755Z,13.40
2018-03-15T10:03:45.197Z,11.90
2018-03-15T10:06:13.615Z,13.93
2018-03-15T10:08:42.052Z,12.17
2018-03-15T10:11:10.470Z,13.10
2018-03-15T10:13:38.875Z,11.30
2018-03-15T10:16:07.302Z,12.67
2018-03-15T10:18:35.719Z,15.55
2018-03-15T10:21:04.149Z,13.97
2018-03-15T10:23:32.551Z,13.25
2018-03-15T10:26:01.361Z,12.48
2018-03-15T10:28:29.774Z,14.52
2018-03-15T10:30:58.970Z,13.82
2018-03-15T10:33:32.951Z,11.00
2018-03-15T10:36:01.359Z,12.75
2018-03-15T10:38:30.610Z,13.15
2018-03-15T10:40:59.122Z,12.45
2018-03-15T10:43:27.543Z,11.65
2018-03-15T10:45:55.946Z,10.37
2018-03-15T10:48:24.408Z,10.53
2018-03-15T10:50:52.823Z,9.75
2018-03-15T10:53:21.235Z,10.30
2018-03-15T10:55:50.434Z,10.35
2018-03-15T10:58:19.629Z,11.55
2018-03-15T11:00:54.458Z,9.85
2018-03-15T11:03:29.258Z,9.63
2018-03-15T11:06:03.148Z,10.95
2018-03-15T11:08:35.544Z,9.70
2018-03-15T11:11:03.985Z,11.82
2018-03-15T11:13:32.399Z,11.18
2018-03-15T11:16:00.859Z,12.40
2018-03-15T11:18:29.304Z,12.30
2018-03-15T11:20:57.975Z,10.90
2018-03-15T11:23:27.162Z,10.73
2018-03-15T11:25:55.563Z,11.00
2018-03-15T11:28:24.765Z,10.60
2018-03-15T11:30:53.929Z,10.17
2018-03-15T11:33:22.468Z,10.80
2018-03-15T11:35:50.865Z,10.13
2018-03-15T11:38:19.275Z,10.57
2018-03-15T11:40:47.699Z,10.07
2018-03-15T11:43:16.935Z,10.87
2018-03-15T11:45:45.429Z,9.70
2018-03-15T11:48:13.866Z,8.50
2018-03-15T11:50:42.646Z,9.23
2018-03-15T11:53:11.779Z,9.60
2018-03-15T11:55:40.200Z,8.57
2018-03-15T11:58:09.423Z,8.23
2018-03-15T12:00:37.862Z,10.67
2018-03-15T12:03:06.326Z,9.60
2018-03-15T12:05:34.738Z,10.60
2018-03-15T12:08:03.912Z,9.50
2018-03-15T12:10:33.086Z,9.30
2018-03-15T12:13:01.486Z,9.20
2018-03-15T12:15:31.416Z,9.87
2018-03-15T12:18:00.586Z,9.47
2018-03-15T12:20:28.993Z,9.60
2018-03-15T12:22:57.386Z,10.60
2018-03-15T12:25:25.804Z,11.27
2018-03-15T12:27:54.308Z,10.80
2018-03-15T12:30:24.272Z,10.50
2018-03-15T12:32:53.457Z,11.17
2018-03-15T12:35:22.607Z,12.17
2018-03-15T12:37:51.017Z,12.27
2018-03-15T12:40:19.414Z,11.23
2018-03-15T12:42:48.980Z,12.40
2018-03-15T12:45:17.358Z,12.70
2018-03-15T12:47:45.747Z,11.23
2018-03-15T12:50:14.725Z,10.53
2018-03-15T12:52:43.103Z,11.63
2018-03-15T12:55:11.518Z,10.90
2018-03-15T12:57:40.678Z,11.07
2018-03-15T13:00:09.117Z,10.13
2018-03-15T13:02:38.301Z,10.07
2018-03-15T13:05:07.450Z,10.50
2018-03-15T13:07:35.854Z,9.20
2018-03-15T13:10:04.235Z,9.13
2018-03-15T13:12:32.643Z,9.60
2018-03-15T13:15:01.786Z,9.97
2018-03-15T13:17:30.217Z,12.10
2018-03-15T13:20:00.052Z,11.30
2018-03-15T13:22:28.432Z,12.00
2018-03-15T13:24:56.842Z,11.57
2018-03-15T13:27:25.218Z,11.40
2018-03-15T13:29:53.629Z,11.77
2018-03-15T13:32:22.790Z,10.23
2018-03-15T13:34:51.221Z,11.93
2018-03-15T13:37:20.366Z,10.67
2018-03-15T13:39:48.762Z,10.70
2018-03-15T13:42:17.218Z,11.68
2018-03-15T13:44:45.620Z,11.68
2018-03-15T13:47:14.025Z,11.15
2018-03-15T13:49:43.215Z,12.07
2018-03-15T13:52:11.726Z,12.35
2018-03-15T13:54:40.215Z,11.98
2018-03-15T13:57:08.611Z,12.20
2018-03-15T13:59:37.027Z,12.70
2018-03-15T14:02:05.414Z,12.43
2018-03-15T14:04:33.842Z,13.60
2018-03-15T14:07:02.309Z,12.00
2018-03-15T14:09:30.756Z,11.88
2018-03-15T14:11:59.134Z,13.48
2018-03-15T14:14:27.523Z,13.77
2018-03-15T14:16:56.698Z,12.48
2018-03-15T14:19:25.838Z,13.55
2018-03-15T14:21:54.239Z,12.20
2018-03-15T14:24:22.617Z,13.43
2018-03-15T14:26:51.262Z,13.88
2018-03-15T14:29:20.436Z,12.27
2018-03-15T14:31:49.597Z,13.10
2018-03-15T14:34:18.007Z,15.25
2018-03-15T14:36:46.407Z,13.93
2018-03-15T14:39:15.584Z,15.05
2018-03-15T14:41:43.970Z,13.90
2018-03-15T14:44:12.660Z,13.00
2018-03-15T14:46:41.047Z,13.00
2018-03-15T14:49:10.199Z,14.70
2018-03-15T14:51:38.618Z,13.25
2018-03-15T14:54:07.950Z,13.10
2018-03-15T14:56:36.363Z,12.98
2018-03-15T14:59:04.759Z,13.43
2018-03-15T15:01:33.175Z,13.62
2018-03-15T15:04:02.352Z,12.77
2018-03-15T15:06:31.504Z,14.75
2018-03-15T15:09:00.404Z,14.57
2018-03-15T15:11:29.159Z,14.50
2018-03-15T15:13:57.702Z,13.25
2018-03-15T15:16:26.162Z,13.57
2018-03-15T15:18:54.944Z,13.57
2018-03-15T15:21:23.352Z,12.88
2018-03-15T15:23:51.970Z,12.85
2018-03-15T15:26:20.382Z,13.23
2018-03-15T15:28:48.781Z,14.45
2018-03-15T15:31:17.186Z,14.18
2018-03-15T15:33:46.340Z,14.18
2018-03-15T15:36:15.026Z,15.23
2018-03-15T15:38:43.410Z,14.38
2018-03-15T15:41:11.795Z,14.73
2018-03-15T15:43:40.551Z,15.85
2018-03-15T15:46:10.612Z,13.18
2018-03-15T15:48:40.664Z,15.07
2018-03-15T15:51:09.647Z,12.70
2018-03-15T15:53:39.415Z,13.73
2018-03-15T15:56:07.830Z,13.68
2018-03-15T15:58:37.014Z,14.23
2018-03-15T16:01:06.591Z,12.60
2018-03-15T16:03:35.123Z,14.00
2018-03-15T16:06:03.871Z,13.80
2018-03-15T16:08:32.246Z,11.82
2018-03-15T16:11:01.239Z,13.60
2018-03-15T16:13:29.655Z,14.05
2018-03-15T16:15:59.186Z,14.35
2018-03-15T16:18:27.634Z,13.45
2018-03-15T16:20:56.820Z,15.95
2018-03-15T16:23:25.266Z,14.90
2018-03-15T16:25:54.560Z,12.55
2018-03-15T16:28:24.275Z,15.18
2018-03-15T16:30:52.788Z,14.13
2018-03-15T16:33:21.217Z,13.82
2018-03-15T16:35:50.132Z,14.45
2018-03-15T16:38:19.018Z,15.25
2018-03-15T16:40:48.454Z,13.55
2018-03-15T16:43:17.124Z,13.38
2018-03-15T16:45:46.100Z,13.82
2018-03-15T16:48:14.551Z,13.95
2018-03-15T16:50:44.050Z,14.82
2018-03-15T16:53:12.589Z,14.50
2018-03-15T16:55:41.456Z,13.82
2018-03-15T16:58:10.019Z,14.30
2018-03-15T17:00:38.410Z,15.25
2018-03-15T17:03:06.861Z,14.52
2018-03-15T17:05:36.039Z,15.95
2018-03-15T17:08:06.469Z,17.12
2018-03-15T17:10:35.746Z,13.10
2018-03-15T17:13:04.129Z,15.35
2018-03-15T17:15:32.543Z,15.70
2018-03-15T17:18:00.958Z,13.80
2018-03-15T17:20:29.379Z,15.73
2018-03-15T17:22:58.824Z,15.65
2018-03-15T17:25:27.562Z,15.73
2018-03-15T17:27:55.973Z,15.38
2018-03-15T17:30:24.360Z,13.88
2018-03-15T17:32:53.258Z,14.52
2018-03-15T17:35:21.658Z,14.90
2018-03-15T17:37:50.682Z,14.30
2018-03-15T17:40:19.082Z,14.80
2018-03-15T17:42:49.219Z,14.05
2018-03-15T17:45:18.914Z,13.68
2018-03-15T17:47:48.101Z,13.82
2018-03-15T17:50:17.413Z,14.80
2018-03-15T17:52:46.270Z,15.30
2018-03-15T17:55:14.679Z,14.70
2018-03-15T17:57:43.081Z,16.02
2018-03-15T18:00:11.684Z,15.35
2018-03-15T18:02:40.220Z,13.93
2018-03-15T18:05:09.782Z,14.98
2018-03-15T18:07:38.162Z,16.10
2018-03-15T18:10:06.543Z,15.65
2018-03-15T18:12:34.951Z,16.70
2018-03-15T18:15:04.110Z,16.52
2018-03-15T18:17:32.980Z,18.48
2018-03-15T18:20:01.435Z,17.83
2018-03-15T18:22:30.102Z,17.75
2018-03-15T18:24:59.541Z,16.25
2018-03-15T18:27:28.116Z,20.37
2018-03-15T18:29:56.936Z,19.23
2018-03-15T18:32:25.409Z,18.80
2018-03-15T18:34:53.847Z,20.75
2018-03-15T18:37:23.192Z,18.15
2018-03-15T18:39:51.607Z,19.40
2018-03-15T18:42:19.995Z,21.17
2018-03-15T18:44:48.371Z,22.00
2018-03-15T18:47:17.953Z,21.62
2018-03-15T18:49:46.776Z,21.77
2018-03-15T18:52:15.223Z,20.75
2018-03-15T18:54:43.634Z,26.08
2018-03-15T18:57:12.837Z,21.58
2018-03-15T18:59:41.292Z,21.70
2018-03-15T19:02:09.662Z,23.10
2018-03-15T19:04:38.154Z,23.38
2018-03-15T19:07:07.329Z,26.48
2018-03-15T19:09:35.846Z,22.75
2018-03-15T19:12:04.991Z,25.05
2018-03-15T19:14:33.781Z,24.37
2018-03-15T19:17:02.162Z,22.42
2018-03-15T19:19:30.538Z,26.40
2018-03-15T19:21:58.977Z,23.87
2018-03-15T19:24:28.119Z,26.02
2018-03-15T19:26:56.701Z,22.23
2018-03-15T19:29:25.347Z,24.83
2018-03-15T19:31:54.483Z,25.10
2018-03-15T19:34:23.032Z,27.80
2018-03-15T19:36:52.937Z,25.30
2018-03-15T19:39:22.250Z,28.40
2018-03-15T19:41:51.068Z,24.52
2018-03-15T19:44:19.698Z,25.85
2018-03-15T19:46:49.421Z,27.85
2018-03-15T19:49:19.155Z,26.65
2018-03-15T19:51:49.504Z,27.65
2018-03-15T19:54:18.263Z,25.88
2018-03-15T19:56:47.207Z,25.92
2018-03-15T19:59:16.187Z,25.88
2018-03-15T20:01:44.962Z,24.63
2018-03-15T20:04:14.568Z,26.15
2018-03-15T20:06:43.453Z,25.88
2018-03-15T20:09:12.250Z,26.92
2018-03-15T20:11:41.262Z,24.55
2018-03-15T20:14:10.156Z,27.75
2018-03-15T20:16:39.629Z,26.95
2018-03-15T20:19:13.561Z,26.80
2018-03-15T20:21:42.959Z,26.10
2018-03-15T20:24:19.080Z,27.08
2018-03-15T20:26:48.036Z,27.77
2018-03-15T20:29:18.384Z,27.73
2018-03-15T20:31:47.247Z,27.23
2018-03-15T20:34:15.956Z,29.75
2018-03-15T20:36:44.576Z,26.85
2018-03-15T20:39:19.639Z,31.17
2018-03-15T20:41:50.059Z,28.48
2018-03-15T20:44:18.723Z,26.45
2018-03-15T20:46:53.965Z,28.00
2018-03-15T20:49:25.090Z,27.90
2018-03-15T20:51:53.796Z,27.67
2018-03-15T20:54:23.053Z,28.52
2018-03-15T20:56:51.889Z,29.73
2018-03-15T20:59:21.038Z,28.85
2018-03-15T21:01:49.906Z,29.10
2018-03-15T21:04:18.668Z,31.05
2018-03-15T21:06:49.760Z,31.40
2018-03-15T21:09:19.125Z,28.58
2018-03-15T21:11:48.992Z,31.23
2018-03-15T21:14:18.447Z,33.95
2018-03-15T21:16:47.475Z,27.98
2018-03-15T21:19:16.755Z,29.20
2018-03-15T21:21:45.692Z,29.98
2018-03-15T21:24:15.089Z,27.02
2018-03-15T21:26:45.164Z,26.30
2018-03-15T21:29:15.436Z,27.52
2018-03-15T21:31:44.231Z,27.65
2018-03-15T21:34:13.454Z,30.12
2018-03-15T21:36:48.008Z,26.83
2018-03-15T21:39:17.006Z,28.05
2018-03-15T21:41:45.924Z,30.42
2018-03-15T21:44:16.051Z,28.45
2018-03-15T21:46:45.195Z,28.17
2018-03-15T21:49:15.574Z,29.35
2018-03-15T21:51:47.042Z,29.33
2018-03-15T21:54:17.020Z,31.05
2018-03-15T21:56:46.136Z,30.10
2018-03-15T21:59:14.630Z,30.48
2018-03-15T22:01:43.384Z,28.75
2018-03-15T22:04:12.143Z,30.95
2018-03-15T22:06:40.771Z,33.45
2018-03-15T22:09:09.366Z,28.75
2018-03-15T22:11:39.459Z,31.45
2018-03-15T22:14:08.648Z,28.75
2018-03-15T22:16:37.267Z,29.40
2018-03-15T22:19:06.056Z,30.50
2018-03-15T22:21:36.175Z,31.80
2018-03-15T22:24:05.738Z,29.02
2018-03-15T22:26:35.962Z,29.35
2018-03-15T22:29:05.107Z,30.45
2018-03-15T22:31:36.370Z,33.03
2018-03-15T22:34:05.935Z,29.40
2018-03-15T22:36:34.934Z,30.80
2018-03-15T22:39:03.940Z,30.08
2018-03-15T22:41:33.320Z,28.90
2018-03-15T22:44:02.239Z,29.25
2018-03-15T22:46:31.016Z,28.25
2018-03-15T22:48:59.948Z,27.70
2018-03-15T22:51:29.308Z,29.77
2018-03-15T22:53:57.995Z,31.42
2018-03-15T22:56:26.786Z,30.80
2018-03-15T22:58:55.460Z,30.23
2018-03-15T23:01:24.871Z,31.87
2018-03-15T23:03:53.438Z,31.92
2018-03-15T23:06:22.038Z,32.63
2018-03-15T23:08:50.619Z,34.55
2018-03-15T23:11:19.243Z,32.90
2018-03-15T23:13:48.583Z,34.55
2018-03-15T23:16:17.085Z,32.78
2018-03-15T23:18:46.028Z,32.45
2018-03-15T23:21:14.662Z,32.53
2018-03-15T23:23:43.244Z,32.92
2018-03-15T23:26:11.816Z,31.42
2018-03-15T23:28:40.710Z,28.48
2018-03-15T23:31:09.357Z,28.12
2018-03-15T23:33:37.973Z,25.08
2018-03-15T23:36:06.791Z,26.77
2018-03-15T23:38:35.416Z,27.13
2018-03-15T23:41:04.650Z,26.42
2018-03-15T23:43:33.240Z,26.50
2018-03-15T23:46:01.861Z,24.55
2018-03-15T23:48:30.616Z,23.62
2018-03-15T23:50:59.250Z,23.48
2018-03-15T23:53:28.086Z,23.48
2018-03-15T23:55:56.512Z,23.33
2018-03-15T23:58:25.774Z,21.62
